sensor_id;sensor_type;location;lat;lon;timestamp;P1;durP1;ratioP1;P2;durP2;ratioP2
46765;SDS011;32527;51.986;5.842;2023-03-23T00:01:18;14.68;;;5.45;;
46765;SDS011;32527;51.986;5.842;2023-03-23T00:03:50;15.98;;;5.72;;
46765;SDS011;32527;51.986;5.842;2023-03-23T00:06:18;10.63;;;5.10;;
46765;SDS011;32527;51.986;5.842;2023-03-23T00:08:45;11.40;;;4.95;;
46765;SDS011;32527;51.986;5.842;2023-03-23T00:13:47;10.88;;;5.32;;
46765;SDS011;32527;51.986;5.842;2023-03-23T00:16:17;10.52;;;5.47;;
46765;SDS011;32527;51.986;5.842;2023-03-23T00:18:48;10.82;;;5.32;;
46765;SDS011;32527;51.986;5.842;2023-03-23T00:21:20;9.63;;;5.00;;
46765;SDS011;32527;51.986;5.842;2023-03-23T00:23:53;10.80;;;5.32;;
46765;SDS011;32527;51.986;5.842;2023-03-23T00:26:19;12.65;;;5.25;;
46765;SDS011;32527;51.986;5.842;2023-03-23T00:28:44;9.95;;;5.07;;
46765;SDS011;32527;51.986;5.842;2023-03-23T00:31:11;9.85;;;4.47;;
46765;SDS011;32527;51.986;5.842;2023-03-23T00:33:38;11.00;;;4.60;;
46765;SDS011;32527;51.986;5.842;2023-03-23T00:36:09;9.93;;;4.60;;
46765;SDS011;32527;51.986;5.842;2023-03-23T00:38:38;10.65;;;4.95;;
46765;SDS011;32527;51.986;5.842;2023-03-23T00:41:05;10.40;;;4.75;;
46765;SDS011;32527;51.986;5.842;2023-03-23T00:43:31;8.75;;;4.55;;
46765;SDS011;32527;51.986;5.842;2023-03-23T00:46:01;9.63;;;4.90;;
46765;SDS011;32527;51.986;5.842;2023-03-23T00:48:28;8.15;;;4.50;;
46765;SDS011;32527;51.986;5.842;2023-03-23T00:50:54;9.27;;;4.45;;
46765;SDS011;32527;51.986;5.842;2023-03-23T00:53:23;12.60;;;4.40;;
46765;SDS011;32527;51.986;5.842;2023-03-23T00:55:50;9.32;;;4.57;;
46765;SDS011;32527;51.986;5.842;2023-03-23T00:58:15;14.32;;;5.68;;
46765;SDS011;32527;51.986;5.842;2023-03-23T01:00:41;8.73;;;4.65;;
46765;SDS011;32527;51.986;5.842;2023-03-23T01:03:08;9.02;;;5.05;;
46765;SDS011;32527;51.986;5.842;2023-03-23T01:05:37;10.55;;;4.53;;
46765;SDS011;32527;51.986;5.842;2023-03-23T01:08:04;13.60;;;4.82;;
46765;SDS011;32527;51.986;5.842;2023-03-23T01:10:30;7.15;;;4.13;;
46765;SDS011;32527;51.986;5.842;2023-03-23T01:13:03;10.00;;;4.45;;
46765;SDS011;32527;51.986;5.842;2023-03-23T01:15:30;8.88;;;4.13;;
46765;SDS011;32527;51.986;5.842;2023-03-23T01:17:56;9.20;;;4.45;;
46765;SDS011;32527;51.986;5.842;2023-03-23T01:20:22;9.23;;;4.20;;
46765;SDS011;32527;51.986;5.842;2023-03-23T01:22:49;9.70;;;4.50;;
46765;SDS011;32527;51.986;5.842;2023-03-23T01:25:15;11.35;;;5.50;;
46765;SDS011;32527;51.986;5.842;2023-03-23T01:27:41;11.07;;;4.90;;
46765;SDS011;32527;51.986;5.842;2023-03-23T01:30:08;11.55;;;5.18;;
46765;SDS011;32527;51.986;5.842;2023-03-23T01:32:37;7.30;;;4.40;;
46765;SDS011;32527;51.986;5.842;2023-03-23T01:35:03;9.25;;;4.60;;
46765;SDS011;32527;51.986;5.842;2023-03-23T01:37:29;8.27;;;4.78;;
46765;SDS011;32527;51.986;5.842;2023-03-23T01:39:56;10.75;;;5.15;;
46765;SDS011;32527;51.986;5.842;2023-03-23T01:42:26;8.63;;;4.80;;
46765;SDS011;32527;51.986;5.842;2023-03-23T01:48:35;9.13;;;5.65;;
46765;SDS011;32527;51.986;5.842;2023-03-23T01:53:38;9.23;;;3.65;;
46765;SDS011;32527;51.986;5.842;2023-03-23T01:56:09;8.07;;;4.40;;
46765;SDS011;32527;51.986;5.842;2023-03-23T01:58:38;7.85;;;4.25;;
46765;SDS011;32527;51.986;5.842;2023-03-23T02:01:05;9.80;;;4.82;;
46765;SDS011;32527;51.986;5.842;2023-03-23T02:03:36;8.15;;;4.78;;
46765;SDS011;32527;51.986;5.842;2023-03-23T02:06:04;7.18;;;3.85;;
46765;SDS011;32527;51.986;5.842;2023-03-23T02:08:50;7.07;;;4.63;;
46765;SDS011;32527;51.986;5.842;2023-03-23T02:11:19;8.80;;;5.10;;
46765;SDS011;32527;51.986;5.842;2023-03-23T02:13:46;10.68;;;5.75;;
46765;SDS011;32527;51.986;5.842;2023-03-23T02:16:25;6.78;;;4.22;;
46765;SDS011;32527;51.986;5.842;2023-03-23T02:21:49;8.77;;;4.80;;
46765;SDS011;32527;51.986;5.842;2023-03-23T02:35:56;7.88;;;4.82;;
46765;SDS011;32527;51.986;5.842;2023-03-23T02:38:25;8.02;;;4.57;;
46765;SDS011;32527;51.986;5.842;2023-03-23T02:40:55;8.40;;;4.57;;
46765;SDS011;32527;51.986;5.842;2023-03-23T02:43:25;8.88;;;4.80;;
46765;SDS011;32527;51.986;5.842;2023-03-23T02:45:55;10.90;;;4.85;;
46765;SDS011;32527;51.986;5.842;2023-03-23T02:48:22;6.30;;;4.68;;
46765;SDS011;32527;51.986;5.842;2023-03-23T02:50:53;8.48;;;4.55;;
46765;SDS011;32527;51.986;5.842;2023-03-23T02:53:23;6.53;;;4.45;;
46765;SDS011;32527;51.986;5.842;2023-03-23T02:55:52;8.30;;;4.50;;
46765;SDS011;32527;51.986;5.842;2023-03-23T02:58:21;10.57;;;4.80;;
46765;SDS011;32527;51.986;5.842;2023-03-23T03:00:54;7.95;;;5.00;;
46765;SDS011;32527;51.986;5.842;2023-03-23T03:03:38;7.28;;;4.55;;
46765;SDS011;32527;51.986;5.842;2023-03-23T03:06:10;8.43;;;4.47;;
46765;SDS011;32527;51.986;5.842;2023-03-23T03:08:50;7.40;;;4.55;;
46765;SDS011;32527;51.986;5.842;2023-03-23T03:11:42;7.57;;;4.60;;
46765;SDS011;32527;51.986;5.842;2023-03-23T03:14:17;9.40;;;4.57;;
46765;SDS011;32527;51.986;5.842;2023-03-23T03:16:49;8.40;;;4.30;;
46765;SDS011;32527;51.986;5.842;2023-03-23T03:19:27;12.10;;;4.72;;
46765;SDS011;32527;51.986;5.842;2023-03-23T03:21:57;10.05;;;4.88;;
46765;SDS011;32527;51.986;5.842;2023-03-23T03:24:36;7.38;;;4.50;;
46765;SDS011;32527;51.986;5.842;2023-03-23T03:27:02;7.53;;;4.68;;
46765;SDS011;32527;51.986;5.842;2023-03-23T03:29:41;7.07;;;4.38;;
46765;SDS011;32527;51.986;5.842;2023-03-23T03:32:08;11.32;;;5.05;;
46765;SDS011;32527;51.986;5.842;2023-03-23T03:34:38;8.18;;;4.80;;
46765;SDS011;32527;51.986;5.842;2023-03-23T03:37:05;7.40;;;5.07;;
46765;SDS011;32527;51.986;5.842;2023-03-23T03:39:34;9.93;;;5.25;;
46765;SDS011;32527;51.986;5.842;2023-03-23T03:42:03;10.48;;;5.05;;
46765;SDS011;32527;51.986;5.842;2023-03-23T03:44:30;7.18;;;4.82;;
46765;SDS011;32527;51.986;5.842;2023-03-23T03:46:56;13.40;;;5.28;;
46765;SDS011;32527;51.986;5.842;2023-03-23T03:49:22;9.73;;;4.80;;
46765;SDS011;32527;51.986;5.842;2023-03-23T03:51:48;11.60;;;5.10;;
46765;SDS011;32527;51.986;5.842;2023-03-23T03:54:21;8.70;;;5.47;;
46765;SDS011;32527;51.986;5.842;2023-03-23T03:56:56;7.78;;;4.68;;
46765;SDS011;32527;51.986;5.842;2023-03-23T04:00:07;8.07;;;5.35;;
46765;SDS011;32527;51.986;5.842;2023-03-23T04:02:46;8.38;;;5.18;;
46765;SDS011;32527;51.986;5.842;2023-03-23T04:05:18;9.93;;;5.40;;
46765;SDS011;32527;51.986;5.842;2023-03-23T04:07:46;9.38;;;5.22;;
46765;SDS011;32527;51.986;5.842;2023-03-23T04:10:14;8.15;;;5.10;;
46765;SDS011;32527;51.986;5.842;2023-03-23T04:12:42;10.13;;;5.70;;
46765;SDS011;32527;51.986;5.842;2023-03-23T04:15:27;10.98;;;4.78;;
46765;SDS011;32527;51.986;5.842;2023-03-23T04:17:54;6.95;;;4.55;;
46765;SDS011;32527;51.986;5.842;2023-03-23T04:20:23;9.18;;;5.05;;
46765;SDS011;32527;51.986;5.842;2023-03-23T04:22:50;9.23;;;4.80;;
46765;SDS011;32527;51.986;5.842;2023-03-23T04:25:18;12.20;;;4.82;;
46765;SDS011;32527;51.986;5.842;2023-03-23T04:27:48;7.07;;;4.78;;
46765;SDS011;32527;51.986;5.842;2023-03-23T04:30:21;8.30;;;4.47;;
46765;SDS011;32527;51.986;5.842;2023-03-23T04:32:59;9.23;;;6.00;;
46765;SDS011;32527;51.986;5.842;2023-03-23T04:35:26;14.02;;;5.43;;
46765;SDS011;32527;51.986;5.842;2023-03-23T04:38:16;8.55;;;4.97;;
46765;SDS011;32527;51.986;5.842;2023-03-23T04:40:52;7.78;;;4.20;;
46765;SDS011;32527;51.986;5.842;2023-03-23T04:43:35;7.65;;;4.20;;
46765;SDS011;32527;51.986;5.842;2023-03-23T04:46:35;13.48;;;4.18;;
46765;SDS011;32527;51.986;5.842;2023-03-23T04:49:07;10.52;;;4.20;;
46765;SDS011;32527;51.986;5.842;2023-03-23T04:51:36;10.20;;;3.67;;
46765;SDS011;32527;51.986;5.842;2023-03-23T04:54:26;7.38;;;3.58;;
46765;SDS011;32527;51.986;5.842;2023-03-23T04:56:55;7.85;;;3.38;;
46765;SDS011;32527;51.986;5.842;2023-03-23T04:59:23;8.48;;;3.92;;
46765;SDS011;32527;51.986;5.842;2023-03-23T05:02:15;9.05;;;3.83;;
46765;SDS011;32527;51.986;5.842;2023-03-23T05:04:44;9.15;;;3.70;;
46765;SDS011;32527;51.986;5.842;2023-03-23T05:07:16;8.00;;;3.47;;
46765;SDS011;32527;51.986;5.842;2023-03-23T05:09:48;11.45;;;3.55;;
46765;SDS011;32527;51.986;5.842;2023-03-23T05:14:58;11.55;;;3.70;;
46765;SDS011;32527;51.986;5.842;2023-03-23T05:17:26;8.40;;;3.70;;
46765;SDS011;32527;51.986;5.842;2023-03-23T05:19:56;7.50;;;3.28;;
46765;SDS011;32527;51.986;5.842;2023-03-23T05:22:37;10.32;;;3.53;;
46765;SDS011;32527;51.986;5.842;2023-03-23T05:25:05;9.15;;;3.38;;
46765;SDS011;32527;51.986;5.842;2023-03-23T05:27:35;8.73;;;3.20;;
46765;SDS011;32527;51.986;5.842;2023-03-23T05:30:11;7.57;;;3.33;;
46765;SDS011;32527;51.986;5.842;2023-03-23T05:32:40;7.57;;;3.58;;
46765;SDS011;32527;51.986;5.842;2023-03-23T05:35:21;8.20;;;3.00;;
46765;SDS011;32527;51.986;5.842;2023-03-23T05:37:50;9.32;;;3.08;;
46765;SDS011;32527;51.986;5.842;2023-03-23T05:40:18;7.63;;;3.00;;
46765;SDS011;32527;51.986;5.842;2023-03-23T05:42:52;7.10;;;3.08;;
46765;SDS011;32527;51.986;5.842;2023-03-23T05:45:27;7.07;;;3.30;;
46765;SDS011;32527;51.986;5.842;2023-03-23T05:47:53;13.23;;;3.60;;
46765;SDS011;32527;51.986;5.842;2023-03-23T05:50:20;10.05;;;3.45;;
46765;SDS011;32527;51.986;5.842;2023-03-23T05:52:47;9.50;;;3.85;;
46765;SDS011;32527;51.986;5.842;2023-03-23T05:55:14;5.78;;;2.83;;
46765;SDS011;32527;51.986;5.842;2023-03-23T05:57:45;13.52;;;3.03;;
46765;SDS011;32527;51.986;5.842;2023-03-23T06:03:07;11.88;;;3.38;;
46765;SDS011;32527;51.986;5.842;2023-03-23T06:05:44;13.02;;;3.10;;
46765;SDS011;32527;51.986;5.842;2023-03-23T06:08:13;9.55;;;3.70;;
46765;SDS011;32527;51.986;5.842;2023-03-23T06:10:39;6.10;;;2.50;;
46765;SDS011;32527;51.986;5.842;2023-03-23T06:13:06;19.85;;;3.00;;
46765;SDS011;32527;51.986;5.842;2023-03-23T06:15:38;6.40;;;2.17;;
46765;SDS011;32527;51.986;5.842;2023-03-23T06:18:21;8.68;;;3.60;;
46765;SDS011;32527;51.986;5.842;2023-03-23T06:21:09;13.23;;;4.78;;
46765;SDS011;32527;51.986;5.842;2023-03-23T06:23:50;5.25;;;2.78;;
46765;SDS011;32527;51.986;5.842;2023-03-23T06:26:18;10.88;;;3.25;;
46765;SDS011;32527;51.986;5.842;2023-03-23T06:28:48;9.02;;;2.55;;
46765;SDS011;32527;51.986;5.842;2023-03-23T06:31:15;8.68;;;2.95;;
46765;SDS011;32527;51.986;5.842;2023-03-23T06:33:42;7.25;;;2.65;;
46765;SDS011;32527;51.986;5.842;2023-03-23T06:36:23;14.15;;;3.40;;
46765;SDS011;32527;51.986;5.842;2023-03-23T06:39:13;11.55;;;3.00;;
46765;SDS011;32527;51.986;5.842;2023-03-23T06:42:17;13.48;;;2.92;;
46765;SDS011;32527;51.986;5.842;2023-03-23T06:44:50;8.95;;;2.38;;
46765;SDS011;32527;51.986;5.842;2023-03-23T06:47:16;9.23;;;2.60;;
46765;SDS011;32527;51.986;5.842;2023-03-23T06:49:46;12.25;;;3.17;;
46765;SDS011;32527;51.986;5.842;2023-03-23T06:52:25;8.82;;;2.70;;
46765;SDS011;32527;51.986;5.842;2023-03-23T06:54:52;7.18;;;2.70;;
46765;SDS011;32527;51.986;5.842;2023-03-23T06:57:19;11.60;;;3.10;;
46765;SDS011;32527;51.986;5.842;2023-03-23T06:59:47;7.28;;;2.17;;
46765;SDS011;32527;51.986;5.842;2023-03-23T07:02:14;9.43;;;2.63;;
46765;SDS011;32527;51.986;5.842;2023-03-23T07:04:42;7.88;;;2.58;;
46765;SDS011;32527;51.986;5.842;2023-03-23T07:07:15;7.38;;;4.13;;
46765;SDS011;32527;51.986;5.842;2023-03-23T07:10:15;6.25;;;2.40;;
46765;SDS011;32527;51.986;5.842;2023-03-23T07:12:49;4.65;;;2.40;;
46765;SDS011;32527;51.986;5.842;2023-03-23T07:15:16;7.82;;;2.70;;
46765;SDS011;32527;51.986;5.842;2023-03-23T07:17:47;9.50;;;3.72;;
46765;SDS011;32527;51.986;5.842;2023-03-23T07:20:23;11.13;;;3.00;;
46765;SDS011;32527;51.986;5.842;2023-03-23T07:22:50;6.40;;;2.55;;
46765;SDS011;32527;51.986;5.842;2023-03-23T07:25:27;9.40;;;2.70;;
46765;SDS011;32527;51.986;5.842;2023-03-23T07:27:55;12.77;;;2.90;;
46765;SDS011;32527;51.986;5.842;2023-03-23T07:30:21;8.98;;;2.78;;
46765;SDS011;32527;51.986;5.842;2023-03-23T07:32:47;11.48;;;3.03;;
46765;SDS011;32527;51.986;5.842;2023-03-23T07:35:13;8.50;;;2.97;;
46765;SDS011;32527;51.986;5.842;2023-03-23T07:38:05;7.07;;;2.75;;
46765;SDS011;32527;51.986;5.842;2023-03-23T07:40:33;11.05;;;2.70;;
46765;SDS011;32527;51.986;5.842;2023-03-23T07:43:04;10.23;;;2.60;;
46765;SDS011;32527;51.986;5.842;2023-03-23T07:45:53;4.15;;;2.20;;
46765;SDS011;32527;51.986;5.842;2023-03-23T07:48:22;10.15;;;5.20;;
46765;SDS011;32527;51.986;5.842;2023-03-23T07:50:48;10.75;;;3.15;;
46765;SDS011;32527;51.986;5.842;2023-03-23T07:53:15;7.25;;;2.70;;
46765;SDS011;32527;51.986;5.842;2023-03-23T07:55:45;7.10;;;2.72;;
46765;SDS011;32527;51.986;5.842;2023-03-23T07:58:30;6.95;;;2.70;;
46765;SDS011;32527;51.986;5.842;2023-03-23T08:00:57;9.23;;;2.92;;
46765;SDS011;32527;51.986;5.842;2023-03-23T08:03:27;8.05;;;2.22;;
46765;SDS011;32527;51.986;5.842;2023-03-23T08:06:11;10.75;;;2.45;;
46765;SDS011;32527;51.986;5.842;2023-03-23T08:09:09;6.95;;;2.60;;
46765;SDS011;32527;51.986;5.842;2023-03-23T08:11:56;9.15;;;2.88;;
46765;SDS011;32527;51.986;5.842;2023-03-23T08:14:51;5.90;;;2.63;;
46765;SDS011;32527;51.986;5.842;2023-03-23T08:17:44;8.55;;;3.22;;
46765;SDS011;32527;51.986;5.842;2023-03-23T08:20:13;10.13;;;3.10;;
46765;SDS011;32527;51.986;5.842;2023-03-23T08:23:03;9.10;;;3.28;;
46765;SDS011;32527;51.986;5.842;2023-03-23T08:25:47;9.77;;;3.03;;
46765;SDS011;32527;51.986;5.842;2023-03-23T08:28:28;8.25;;;3.08;;
46765;SDS011;32527;51.986;5.842;2023-03-23T08:31:23;7.82;;;3.08;;
46765;SDS011;32527;51.986;5.842;2023-03-23T08:34:04;10.00;;;3.22;;
46765;SDS011;32527;51.986;5.842;2023-03-23T08:36:36;12.23;;;3.70;;
46765;SDS011;32527;51.986;5.842;2023-03-23T08:39:21;13.30;;;3.33;;
46765;SDS011;32527;51.986;5.842;2023-03-23T08:42:07;9.48;;;3.15;;
46765;SDS011;32527;51.986;5.842;2023-03-23T08:44:52;12.63;;;3.90;;
46765;SDS011;32527;51.986;5.842;2023-03-23T08:47:44;8.32;;;3.20;;
46765;SDS011;32527;51.986;5.842;2023-03-23T08:50:14;6.40;;;2.78;;
46765;SDS011;32527;51.986;5.842;2023-03-23T08:53:13;9.23;;;2.95;;
46765;SDS011;32527;51.986;5.842;2023-03-23T08:56:02;7.75;;;3.05;;
46765;SDS011;32527;51.986;5.842;2023-03-23T08:58:44;12.98;;;3.35;;
46765;SDS011;32527;51.986;5.842;2023-03-23T09:01:21;8.90;;;2.75;;
46765;SDS011;32527;51.986;5.842;2023-03-23T09:03:56;6.72;;;2.70;;
46765;SDS011;32527;51.986;5.842;2023-03-23T09:06:50;5.97;;;2.70;;
46765;SDS011;32527;51.986;5.842;2023-03-23T09:09:16;6.43;;;2.60;;
46765;SDS011;32527;51.986;5.842;2023-03-23T09:11:42;12.23;;;2.50;;
46765;SDS011;32527;51.986;5.842;2023-03-23T09:14:09;12.02;;;3.13;;
46765;SDS011;32527;51.986;5.842;2023-03-23T09:16:36;6.05;;;2.13;;
46765;SDS011;32527;51.986;5.842;2023-03-23T09:19:05;6.03;;;2.15;;
46765;SDS011;32527;51.986;5.842;2023-03-23T09:21:33;7.45;;;2.42;;
46765;SDS011;32527;51.986;5.842;2023-03-23T09:24:02;8.85;;;2.42;;
46765;SDS011;32527;51.986;5.842;2023-03-23T09:26:30;4.47;;;1.88;;
46765;SDS011;32527;51.986;5.842;2023-03-23T09:28:57;10.18;;;3.35;;
46765;SDS011;32527;51.986;5.842;2023-03-23T09:31:23;10.02;;;2.25;;
46765;SDS011;32527;51.986;5.842;2023-03-23T09:33:52;5.22;;;1.98;;
46765;SDS011;32527;51.986;5.842;2023-03-23T09:36:21;7.68;;;2.25;;
46765;SDS011;32527;51.986;5.842;2023-03-23T09:38:47;6.40;;;2.05;;
46765;SDS011;32527;51.986;5.842;2023-03-23T09:49:19;8.32;;;2.70;;
46765;SDS011;32527;51.986;5.842;2023-03-23T09:51:51;7.22;;;2.40;;
46765;SDS011;32527;51.986;5.842;2023-03-23T09:56:46;6.88;;;2.47;;
46765;SDS011;32527;51.986;5.842;2023-03-23T09:59:22;7.60;;;2.63;;
46765;SDS011;32527;51.986;5.842;2023-03-23T10:02:17;10.50;;;3.05;;
46765;SDS011;32527;51.986;5.842;2023-03-23T10:04:44;9.10;;;2.47;;
46765;SDS011;32527;51.986;5.842;2023-03-23T10:09:44;10.43;;;3.00;;
46765;SDS011;32527;51.986;5.842;2023-03-23T10:14:47;6.30;;;2.90;;
46765;SDS011;32527;51.986;5.842;2023-03-23T10:17:22;8.77;;;2.70;;
46765;SDS011;32527;51.986;5.842;2023-03-23T10:25:19;8.32;;;2.85;;
46765;SDS011;32527;51.986;5.842;2023-03-23T10:31:08;8.57;;;2.42;;
46765;SDS011;32527;51.986;5.842;2023-03-23T10:33:39;16.52;;;4.65;;
46765;SDS011;32527;51.986;5.842;2023-03-23T10:38:35;14.10;;;3.13;;
46765;SDS011;32527;51.986;5.842;2023-03-23T10:41:18;13.82;;;3.50;;
46765;SDS011;32527;51.986;5.842;2023-03-23T10:43:45;12.35;;;2.97;;
46765;SDS011;32527;51.986;5.842;2023-03-23T10:48:40;12.38;;;3.20;;
46765;SDS011;32527;51.986;5.842;2023-03-23T10:51:09;17.88;;;3.22;;
46765;SDS011;32527;51.986;5.842;2023-03-23T10:53:44;12.80;;;3.47;;
46765;SDS011;32527;51.986;5.842;2023-03-23T10:56:28;14.90;;;3.42;;
46765;SDS011;32527;51.986;5.842;2023-03-23T10:58:59;9.75;;;2.72;;
46765;SDS011;32527;51.986;5.842;2023-03-23T11:01:36;10.02;;;3.63;;
46765;SDS011;32527;51.986;5.842;2023-03-23T11:04:02;14.48;;;4.20;;
46765;SDS011;32527;51.986;5.842;2023-03-23T11:06:35;15.63;;;3.40;;
46765;SDS011;32527;51.986;5.842;2023-03-23T11:11:43;8.73;;;2.75;;
46765;SDS011;32527;51.986;5.842;2023-03-23T11:16:51;10.32;;;3.03;;
46765;SDS011;32527;51.986;5.842;2023-03-23T11:19:23;10.18;;;2.80;;
46765;SDS011;32527;51.986;5.842;2023-03-23T11:21:51;9.50;;;2.50;;
46765;SDS011;32527;51.986;5.842;2023-03-23T11:24:21;13.07;;;2.90;;
46765;SDS011;32527;51.986;5.842;2023-03-23T11:26:48;9.45;;;2.80;;
46765;SDS011;32527;51.986;5.842;2023-03-23T11:29:16;12.38;;;2.92;;
46765;SDS011;32527;51.986;5.842;2023-03-23T11:34:30;10.73;;;4.35;;
46765;SDS011;32527;51.986;5.842;2023-03-23T11:36:58;10.32;;;2.83;;
46765;SDS011;32527;51.986;5.842;2023-03-23T11:41:54;10.18;;;2.65;;
46765;SDS011;32527;51.986;5.842;2023-03-23T11:44:23;8.30;;;3.22;;
46765;SDS011;32527;51.986;5.842;2023-03-23T11:55:12;13.68;;;3.08;;
46765;SDS011;32527;51.986;5.842;2023-03-23T11:57:41;6.38;;;2.22;;
46765;SDS011;32527;51.986;5.842;2023-03-23T12:00:11;11.85;;;3.22;;
46765;SDS011;32527;51.986;5.842;2023-03-23T12:03:14;13.35;;;2.90;;
46765;SDS011;32527;51.986;5.842;2023-03-23T12:05:43;6.38;;;2.70;;
46765;SDS011;32527;51.986;5.842;2023-03-23T12:10:48;13.50;;;3.08;;
46765;SDS011;32527;51.986;5.842;2023-03-23T12:22:05;10.68;;;3.95;;
46765;SDS011;32527;51.986;5.842;2023-03-23T12:24:51;9.52;;;3.15;;
46765;SDS011;32527;51.986;5.842;2023-03-23T12:38:23;8.68;;;2.88;;
46765;SDS011;32527;51.986;5.842;2023-03-23T12:41:16;9.93;;;2.85;;
46765;SDS011;32527;51.986;5.842;2023-03-23T12:46:19;10.65;;;3.28;;
46765;SDS011;32527;51.986;5.842;2023-03-23T13:04:38;9.07;;;3.33;;
46765;SDS011;32527;51.986;5.842;2023-03-23T13:07:12;20.55;;;3.72;;
46765;SDS011;32527;51.986;5.842;2023-03-23T13:09:50;7.57;;;2.85;;
46765;SDS011;32527;51.986;5.842;2023-03-23T13:12:18;13.18;;;3.70;;
46765;SDS011;32527;51.986;5.842;2023-03-23T13:17:44;16.80;;;3.45;;
46765;SDS011;32527;51.986;5.842;2023-03-23T13:20:37;14.00;;;3.67;;
46765;SDS011;32527;51.986;5.842;2023-03-23T13:25:48;6.03;;;3.33;;
46765;SDS011;32527;51.986;5.842;2023-03-23T13:28:18;12.52;;;3.20;;
46765;SDS011;32527;51.986;5.842;2023-03-23T13:33:23;8.63;;;3.05;;
46765;SDS011;32527;51.986;5.842;2023-03-23T13:35:49;12.57;;;3.00;;
46765;SDS011;32527;51.986;5.842;2023-03-23T13:38:26;9.38;;;2.95;;
46765;SDS011;32527;51.986;5.842;2023-03-23T13:40:53;6.55;;;3.50;;
46765;SDS011;32527;51.986;5.842;2023-03-23T13:43:31;8.07;;;3.40;;
46765;SDS011;32527;51.986;5.842;2023-03-23T13:46:12;9.88;;;4.28;;
46765;SDS011;32527;51.986;5.842;2023-03-23T13:49:50;6.05;;;3.55;;
46765;SDS011;32527;51.986;5.842;2023-03-23T13:56:59;11.68;;;3.10;;
46765;SDS011;32527;51.986;5.842;2023-03-23T14:01:56;8.30;;;3.05;;
46765;SDS011;32527;51.986;5.842;2023-03-23T14:04:41;6.75;;;2.60;;
46765;SDS011;32527;51.986;5.842;2023-03-23T14:07:11;14.23;;;4.88;;
46765;SDS011;32527;51.986;5.842;2023-03-23T14:09:41;8.48;;;2.60;;
46765;SDS011;32527;51.986;5.842;2023-03-23T14:12:28;7.63;;;3.47;;
46765;SDS011;32527;51.986;5.842;2023-03-23T14:15:02;8.95;;;3.40;;
46765;SDS011;32527;51.986;5.842;2023-03-23T14:17:33;9.65;;;3.40;;
46765;SDS011;32527;51.986;5.842;2023-03-23T14:20:06;8.50;;;3.45;;
46765;SDS011;32527;51.986;5.842;2023-03-23T14:22:38;11.23;;;3.58;;
46765;SDS011;32527;51.986;5.842;2023-03-23T14:25:12;7.25;;;3.60;;
46765;SDS011;32527;51.986;5.842;2023-03-23T14:27:40;5.97;;;3.55;;
46765;SDS011;32527;51.986;5.842;2023-03-23T14:30:08;6.13;;;3.28;;
46765;SDS011;32527;51.986;5.842;2023-03-23T14:32:38;7.38;;;3.42;;
46765;SDS011;32527;51.986;5.842;2023-03-23T14:35:12;9.27;;;3.80;;
46765;SDS011;32527;51.986;5.842;2023-03-23T14:37:42;9.43;;;3.75;;
46765;SDS011;32527;51.986;5.842;2023-03-23T14:40:12;10.48;;;3.50;;
46765;SDS011;32527;51.986;5.842;2023-03-23T14:42:40;11.68;;;3.38;;
46765;SDS011;32527;51.986;5.842;2023-03-23T14:45:07;8.05;;;3.35;;
46765;SDS011;32527;51.986;5.842;2023-03-23T14:47:45;9.27;;;3.33;;
46765;SDS011;32527;51.986;5.842;2023-03-23T14:52:51;8.82;;;2.92;;
46765;SDS011;32527;51.986;5.842;2023-03-23T14:55:18;8.60;;;2.90;;
46765;SDS011;32527;51.986;5.842;2023-03-23T14:57:46;6.68;;;2.90;;
46765;SDS011;32527;51.986;5.842;2023-03-23T15:02:47;9.40;;;2.92;;
46765;SDS011;32527;51.986;5.842;2023-03-23T15:05:19;6.30;;;2.40;;
46765;SDS011;32527;51.986;5.842;2023-03-23T15:07:58;8.32;;;2.88;;
46765;SDS011;32527;51.986;5.842;2023-03-23T15:10:29;7.85;;;2.35;;
46765;SDS011;32527;51.986;5.842;2023-03-23T15:12:55;6.75;;;2.40;;
46765;SDS011;32527;51.986;5.842;2023-03-23T15:15:30;6.10;;;2.13;;
46765;SDS011;32527;51.986;5.842;2023-03-23T15:17:57;13.82;;;2.38;;
46765;SDS011;32527;51.986;5.842;2023-03-23T15:20:27;11.45;;;4.97;;
46765;SDS011;32527;51.986;5.842;2023-03-23T15:22:57;6.45;;;2.30;;
46765;SDS011;32527;51.986;5.842;2023-03-23T15:25:31;9.82;;;2.67;;
46765;SDS011;32527;51.986;5.842;2023-03-23T15:28:07;13.95;;;3.30;;
46765;SDS011;32527;51.986;5.842;2023-03-23T15:30:54;8.85;;;2.67;;
46765;SDS011;32527;51.986;5.842;2023-03-23T15:33:23;7.80;;;2.65;;
46765;SDS011;32527;51.986;5.842;2023-03-23T15:35:53;8.50;;;2.70;;
46765;SDS011;32527;51.986;5.842;2023-03-23T15:38:29;13.88;;;4.25;;
46765;SDS011;32527;51.986;5.842;2023-03-23T15:40:57;10.60;;;3.47;;
46765;SDS011;32527;51.986;5.842;2023-03-23T15:43:27;11.80;;;3.10;;
46765;SDS011;32527;51.986;5.842;2023-03-23T15:45:57;7.72;;;2.40;;
46765;SDS011;32527;51.986;5.842;2023-03-23T15:48:44;18.17;;;4.38;;
46765;SDS011;32527;51.986;5.842;2023-03-23T15:51:24;8.45;;;2.75;;
46765;SDS011;32527;51.986;5.842;2023-03-23T15:53:51;11.95;;;2.67;;
46765;SDS011;32527;51.986;5.842;2023-03-23T15:56:18;12.05;;;3.13;;
46765;SDS011;32527;51.986;5.842;2023-03-23T15:58:44;11.70;;;3.00;;
46765;SDS011;32527;51.986;5.842;2023-03-23T16:01:12;9.90;;;3.05;;
46765;SDS011;32527;51.986;5.842;2023-03-23T16:03:42;7.43;;;2.72;;
46765;SDS011;32527;51.986;5.842;2023-03-23T16:06:19;10.55;;;3.53;;
46765;SDS011;32527;51.986;5.842;2023-03-23T16:08:46;12.60;;;3.17;;
46765;SDS011;32527;51.986;5.842;2023-03-23T16:11:14;10.07;;;2.90;;
46765;SDS011;32527;51.986;5.842;2023-03-23T16:13:42;13.30;;;3.38;;
46765;SDS011;32527;51.986;5.842;2023-03-23T16:18:43;11.25;;;3.13;;
46765;SDS011;32527;51.986;5.842;2023-03-23T16:21:09;9.43;;;3.13;;
46765;SDS011;32527;51.986;5.842;2023-03-23T16:23:36;10.38;;;3.15;;
46765;SDS011;32527;51.986;5.842;2023-03-23T16:26:02;11.05;;;3.55;;
46765;SDS011;32527;51.986;5.842;2023-03-23T16:28:28;8.90;;;3.10;;
46765;SDS011;32527;51.986;5.842;2023-03-23T16:30:54;7.50;;;2.88;;
46765;SDS011;32527;51.986;5.842;2023-03-23T16:33:20;8.02;;;2.95;;
46765;SDS011;32527;51.986;5.842;2023-03-23T16:35:47;12.70;;;3.95;;
46765;SDS011;32527;51.986;5.842;2023-03-23T16:38:14;10.52;;;2.60;;
46765;SDS011;32527;51.986;5.842;2023-03-23T16:40:42;15.85;;;4.25;;
46765;SDS011;32527;51.986;5.842;2023-03-23T16:43:08;7.90;;;3.83;;
46765;SDS011;32527;51.986;5.842;2023-03-23T16:45:39;9.82;;;2.60;;
46765;SDS011;32527;51.986;5.842;2023-03-23T16:48:06;6.05;;;2.42;;
46765;SDS011;32527;51.986;5.842;2023-03-23T16:50:33;9.40;;;3.00;;
46765;SDS011;32527;51.986;5.842;2023-03-23T16:53:00;12.18;;;3.42;;
46765;SDS011;32527;51.986;5.842;2023-03-23T16:55:26;8.88;;;3.50;;
46765;SDS011;32527;51.986;5.842;2023-03-23T16:57:52;7.30;;;3.15;;
46765;SDS011;32527;51.986;5.842;2023-03-23T17:00:19;9.30;;;3.60;;
46765;SDS011;32527;51.986;5.842;2023-03-23T17:02:46;8.50;;;2.75;;
46765;SDS011;32527;51.986;5.842;2023-03-23T17:05:16;13.23;;;2.90;;
46765;SDS011;32527;51.986;5.842;2023-03-23T17:07:44;10.48;;;2.92;;
46765;SDS011;32527;51.986;5.842;2023-03-23T17:10:10;7.05;;;2.60;;
46765;SDS011;32527;51.986;5.842;2023-03-23T17:12:37;9.15;;;2.85;;
46765;SDS011;32527;51.986;5.842;2023-03-23T17:15:03;5.45;;;2.50;;
46765;SDS011;32527;51.986;5.842;2023-03-23T17:17:30;4.50;;;2.53;;
46765;SDS011;32527;51.986;5.842;2023-03-23T17:19:56;8.15;;;2.90;;
46765;SDS011;32527;51.986;5.842;2023-03-23T17:22:23;7.45;;;3.10;;
46765;SDS011;32527;51.986;5.842;2023-03-23T17:24:49;6.10;;;3.05;;
46765;SDS011;32527;51.986;5.842;2023-03-23T17:27:16;11.02;;;3.22;;
46765;SDS011;32527;51.986;5.842;2023-03-23T17:29:43;8.93;;;3.08;;
46765;SDS011;32527;51.986;5.842;2023-03-23T17:32:09;11.23;;;2.63;;
46765;SDS011;32527;51.986;5.842;2023-03-23T17:34:35;8.70;;;2.92;;